Impacts METAR Board
IDs:

KTPL - Temple/Miller Rgnl, TX, US

Updated at: 1200 UTC 16 Jul 2019
Potential Impact None Slight Moderate High
Time 16/00Z 16/01Z 16/02Z 16/03Z 16/04Z 16/05Z 16/06Z 16/07Z 16/08Z 16/09Z 16/10Z 16/11Z 16/12Z
Temp94 90 85 82 82 82 82 81 79 78 78 77 77
Dewpt74 74 74 75 76 78 77 76 77 77 77 77 77
Altim29.87 29.88 29.89 29.91 29.92 29.93 29.94 29.94 29.94 29.94 29.95 29.97 29.98
VIS10 10 10 10 10 10 10 10 10 10 10 10 10
CIG-- 60 -- -- -- -- -- -- -- -- -- -- --
CoverCLRBKNCLRCLRCLRCLRCLRCLRCLRCLRCLRSCTCLR
FltCatVFRVFRVFRVFRVFRVFRVFRVFRVFRVFRVFRVFRVFR
WX--------------------------
WDir140150150150140150170180180180180180170
WSpd4 11 9 7 5 9 11 12 12 13 12 13 11
WGst-- -- -- -- -- -- -- -- -- -- -- -- --
Raw hourly METARs
KTPL 152351Z AUTO 14004KT 10SM CLR 34/23 A2987 RMK AO2 SLP114 T03440233 10361 20317 56013
KTPL 160051Z AUTO 15011KT 10SM BKN060 BKN080 32/23 A2988 RMK AO2 SLP117 T03220233
KTPL 160151Z AUTO 15009KT 10SM CLR 29/23 A2989 RMK AO2 SLP121 T02940233
KTPL 160251Z AUTO 15007KT 10SM CLR 28/24 A2991 RMK AO2 SLP126 T02780239 53013
KTPL 160351Z AUTO 14005KT 10SM CLR 28/24 A2992 RMK AO2 SLP132 T02780244
KTPL 160451Z AUTO 15009KT 10SM CLR 28/26 A2993 RMK AO2 SLP134 T02780256
KTPL 160551Z AUTO 17011KT 10SM CLR 28/25 A2994 RMK AO2 SLP137 T02780250 10344 20278 403610217 51012
KTPL 160651Z AUTO 18012KT 10SM CLR 27/24 A2994 RMK AO2 SLP138 T02720244
KTPL 160751Z AUTO 18012KT 10SM CLR 26/25 A2994 RMK AO2 SLP138 T02610250
KTPL 160851Z AUTO 18013KT 10SM CLR 26/25 A2994 RMK AO2 SLP139 T02560250 51001
KTPL 160951Z AUTO 18012KT 10SM CLR 26/25 A2995 RMK AO2 SLP141 T02560250
KTPL 161051Z AUTO 18013KT 10SM SCT011 25/25 A2997 RMK AO2 SLP147 T02500250
KTPL 161151Z AUTO 17011KT 10SM CLR 25/25 A2998 RMK AO2 SLP152 T02500250 10278 20250 53010